Time;durP1;ratioP1;P1;durP2;ratioP2;P2;SDS_P1;SDS_P2;PMS_P1;PMS_P2;Temp;Humidity;BMP_temperature;BMP_pressure;BME280_temperature;BME280_humidity;BME280_pressure;Samples;Min_cycle;Max_cycle;Signal;HPM_P1;HPM_P2
2021/04/19 00:00:32;;;;;;;11.47;7.07;;;7.90;98.00;;;;;;4343888;33;20238;-61
2021/04/19 00:02:58;;;;;;;16.00;7.03;;;7.80;98.00;;;;;;4340431;33;20188;-61
2021/04/19 00:05:25;;;;;;;12.83;6.80;;;7.80;98.30;;;;;;4345249;33;20165;-61
2021/04/19 00:07:51;;;;;;;15.23;8.13;;;7.70;98.20;;;;;;4345830;33;20220;-61
2021/04/19 00:10:19;;;;;;;14.73;7.30;;;7.80;98.60;;;;;;4345411;33;20203;-64
2021/04/19 00:12:46;;;;;;;12.57;7.30;;;7.70;98.70;;;;;;4342212;33;20174;-61
2021/04/19 00:15:17;;;;;;;13.27;7.33;;;7.70;98.40;;;;;;4341026;33;20625;-61
2021/04/19 00:17:43;;;;;;;17.40;8.60;;;7.70;98.10;;;;;;4344362;33;20224;-61
2021/04/19 00:20:10;;;;;;;13.70;7.87;;;7.60;98.70;;;;;;4345181;33;20218;-65
2021/04/19 00:22:37;;;;;;;15.40;9.17;;;7.60;99.20;;;;;;4345007;33;20196;-64
2021/04/19 00:25:08;;;;;;;20.50;8.53;;;7.50;99.50;;;;;;4345581;33;20224;-64
2021/04/19 00:27:35;;;;;;;16.60;8.00;;;7.40;99.60;;;;;;4345967;33;20227;-61
2021/04/19 00:30:01;;;;;;;11.50;7.83;;;7.40;99.90;;;;;;4346015;33;20703;-64
2021/04/19 00:32:28;;;;;;;10.60;7.40;;;7.40;99.90;;;;;;4344581;33;20225;-62
2021/04/19 00:34:55;;;;;;;14.13;7.83;;;7.40;99.70;;;;;;4346331;33;20654;-64
2021/04/19 00:37:21;;;;;;;16.83;8.40;;;7.30;99.90;;;;;;4334072;33;20198;-64
2021/04/19 00:39:48;;;;;;;17.77;9.50;;;7.30;99.90;;;;;;4331131;33;20157;-62
2021/04/19 00:42:15;;;;;;;19.07;10.43;;;7.30;99.90;;;;;;4339685;33;20252;-63
2021/04/19 00:44:44;;;;;;;25.33;9.47;;;7.30;99.90;;;;;;4337234;33;20221;-61
2021/04/19 00:47:10;;;;;;;15.07;9.47;;;7.20;99.90;;;;;;4344295;33;20161;-65
2021/04/19 00:49:37;;;;;;;19.80;9.57;;;7.20;99.90;;;;;;4334769;33;20232;-63
2021/04/19 00:52:05;;;;;;;15.23;9.40;;;7.20;99.90;;;;;;4334554;33;20538;-66
2021/04/19 00:54:31;;;;;;;13.87;9.03;;;7.20;99.90;;;;;;4348158;33;20200;-65
2021/04/19 00:56:58;;;;;;;17.70;9.40;;;7.20;99.90;;;;;;4346210;33;20500;-62
2021/04/19 00:59:25;;;;;;;17.90;9.67;;;7.10;99.90;;;;;;4340409;33;20177;-63
2021/04/19 01:01:51;;;;;;;16.47;9.10;;;7.20;99.90;;;;;;4335245;33;20170;-63
2021/04/19 01:04:18;;;;;;;18.47;9.53;;;7.20;99.90;;;;;;4343470;33;20177;-65
2021/04/19 01:06:45;;;;;;;19.97;10.40;;;7.10;99.90;;;;;;4345409;33;20212;-64
2021/04/19 01:09:12;;;;;;;18.43;10.23;;;7.10;99.90;;;;;;4344154;33;20246;-62
2021/04/19 01:11:38;;;;;;;20.00;10.77;;;7.00;99.90;;;;;;4348003;33;20231;-61
2021/04/19 01:14:04;;;;;;;20.03;11.30;;;7.00;99.90;;;;;;4345783;33;20248;-61
2021/04/19 01:16:31;;;;;;;22.70;11.27;;;6.90;99.90;;;;;;4344295;32;20217;-65
2021/04/19 01:18:57;;;;;;;19.37;10.97;;;6.90;99.90;;;;;;4344993;33;20216;-61
2021/04/19 01:21:24;;;;;;;19.50;10.47;;;6.90;99.90;;;;;;4349148;33;20185;-63
2021/04/19 01:23:51;;;;;;;16.50;10.33;;;6.90;99.90;;;;;;4347505;33;20180;-61
2021/04/19 01:26:17;;;;;;;15.93;9.63;;;6.90;99.90;;;;;;4356184;32;20636;-62
2021/04/19 01:28:43;;;;;;;19.07;11.17;;;6.80;99.90;;;;;;4343908;33;20220;-65
2021/04/19 01:31:09;;;;;;;25.20;12.33;;;6.80;99.90;;;;;;4346443;33;20240;-62
2021/04/19 01:33:36;;;;;;;20.43;11.60;;;6.80;99.90;;;;;;4338553;33;20191;-61
2021/04/19 01:36:02;;;;;;;18.13;10.97;;;6.80;99.90;;;;;;4340683;32;20256;-62
2021/04/19 01:38:30;;;;;;;19.23;11.87;;;6.80;99.90;;;;;;4347070;33;20172;-60
2021/04/19 01:40:56;;;;;;;23.20;12.30;;;6.80;99.90;;;;;;4336613;33;20185;-63
2021/04/19 01:43:26;;;;;;;21.00;11.80;;;6.80;99.90;;;;;;4348877;33;20236;-64
2021/04/19 01:45:53;;;;;;;25.37;12.93;;;6.80;99.90;;;;;;4345773;33;20196;-61
2021/04/19 01:48:20;;;;;;;19.33;11.87;;;6.70;99.90;;;;;;4346615;33;20248;-62
2021/04/19 01:50:48;;;;;;;21.67;12.30;;;6.60;99.90;;;;;;4348241;33;20166;-63
2021/04/19 01:53:18;;;;;;;21.80;12.37;;;6.60;99.90;;;;;;4347568;33;20213;-60
2021/04/19 01:55:46;;;;;;;19.27;11.03;;;6.70;99.90;;;;;;4335290;33;20161;-63
2021/04/19 01:58:18;;;;;;;15.70;10.53;;;6.70;99.90;;;;;;4347031;33;20640;-63
2021/04/19 02:00:48;;;;;;;23.53;13.30;;;6.70;99.90;;;;;;4347985;33;20674;-65
2021/04/19 02:03:49;;;;;;;29.80;15.13;;;6.60;99.90;;;;;;4335727;33;20177;-65
2021/04/19 02:06:25;;;;;;;26.07;14.87;;;6.50;99.90;;;;;;4340070;33;20220;-63
2021/04/19 02:08:59;;;;;;;19.70;13.40;;;6.50;99.90;;;;;;4346773;33;20168;-63
2021/04/19 02:11:36;;;;;;;20.97;12.53;;;6.50;99.90;;;;;;4345980;33;20227;-64
2021/04/19 02:14:13;;;;;;;23.23;12.93;;;6.50;99.90;;;;;;4345427;33;20196;-61
2021/04/19 02:16:46;;;;;;;21.20;11.90;;;6.50;99.90;;;;;;4337609;33;20165;-62
2021/04/19 02:19:18;;;;;;;26.40;13.37;;;6.60;99.90;;;;;;4340724;33;20226;-64
2021/04/19 02:21:48;;;;;;;25.07;13.33;;;6.40;99.90;;;;;;4345919;33;20162;-63
2021/04/19 02:24:21;;;;;;;20.77;12.63;;;6.40;99.90;;;;;;4347216;33;20589;-65
2021/04/19 02:26:54;;;;;;;22.80;13.13;;;6.30;99.90;;;;;;4344188;33;20199;-62
2021/04/19 02:29:30;;;;;;;22.70;13.27;;;6.30;99.90;;;;;;4346330;33;20208;-63
2021/04/19 02:31:59;;;;;;;24.43;14.03;;;6.30;99.90;;;;;;4344335;33;20264;-65
2021/04/19 02:34:31;;;;;;;20.03;13.00;;;6.30;99.90;;;;;;4349644;33;20201;-61
2021/04/19 02:36:59;;;;;;;24.83;13.40;;;6.20;99.90;;;;;;4345266;33;20180;-65
2021/04/19 02:39:27;;;;;;;25.93;15.67;;;6.20;99.90;;;;;;4334454;33;20160;-61
2021/04/19 02:41:56;;;;;;;23.37;14.07;;;6.20;99.90;;;;;;4346740;33;20577;-63
2021/04/19 02:44:23;;;;;;;27.00;14.70;;;6.10;99.90;;;;;;4336793;33;20224;-63
2021/04/19 02:46:52;;;;;;;28.43;15.90;;;6.10;99.90;;;;;;4343133;33;20226;-62
2021/04/19 02:49:21;;;;;;;28.10;15.57;;;6.00;99.90;;;;;;4345780;33;20221;-63
2021/04/19 02:51:50;;;;;;;30.27;16.67;;;6.10;99.90;;;;;;4335122;33;20185;-63
2021/04/19 02:54:17;;;;;;;26.83;16.50;;;6.00;99.90;;;;;;4333482;33;20566;-64
2021/04/19 02:56:47;;;;;;;29.17;16.97;;;6.10;99.90;;;;;;4343176;33;20152;-62
2021/04/19 02:59:16;;;;;;;26.93;16.27;;;6.00;99.90;;;;;;4333084;33;20211;-66
2021/04/19 03:01:43;;;;;;;28.93;16.47;;;6.10;99.90;;;;;;4340543;33;20236;-63
2021/04/19 03:04:13;;;;;;;26.33;16.47;;;6.00;99.90;;;;;;4343089;33;20161;-61
2021/04/19 03:06:44;;;;;;;35.13;19.93;;;6.10;99.90;;;;;;4337750;33;20224;-61
2021/04/19 03:09:15;;;;;;;30.77;18.27;;;5.90;99.90;;;;;;4332146;33;20535;-63
2021/04/19 03:11:44;;;;;;;40.20;20.13;;;6.00;99.90;;;;;;4340950;33;20201;-64
2021/04/19 03:14:14;;;;;;;25.80;18.10;;;5.90;99.90;;;;;;4343133;33;20216;-61
2021/04/19 03:16:47;;;;;;;28.17;18.90;;;5.90;99.90;;;;;;4345624;33;20220;-63
2021/04/19 03:19:17;;;;;;;35.50;22.03;;;6.00;99.90;;;;;;4342092;33;20181;-62
2021/04/19 03:21:44;;;;;;;44.43;24.30;;;6.00;99.90;;;;;;4337380;33;20642;-64
2021/04/19 03:24:13;;;;;;;36.07;22.57;;;5.90;99.90;;;;;;4345030;33;20180;-66
2021/04/19 03:26:43;;;;;;;29.10;19.80;;;5.80;99.90;;;;;;4344530;33;20180;-63
2021/04/19 03:29:16;;;;;;;33.23;20.23;;;5.90;99.90;;;;;;4344513;33;20176;-64
2021/04/19 03:31:47;;;;;;;32.03;18.83;;;5.90;99.90;;;;;;4344842;33;20219;-64
2021/04/19 03:34:20;;;;;;;33.07;19.00;;;5.80;99.90;;;;;;4344762;33;20208;-64
2021/04/19 03:36:50;;;;;;;30.27;18.47;;;5.90;99.90;;;;;;4347613;33;20645;-60
2021/04/19 03:39:18;;;;;;;32.27;19.03;;;5.80;99.90;;;;;;4339793;32;20172;-64
2021/04/19 03:41:47;;;;;;;32.37;19.70;;;5.80;99.90;;;;;;4341503;33;20205;-62
2021/04/19 03:44:18;;;;;;;31.67;20.20;;;5.70;99.90;;;;;;4345422;33;20224;-60
2021/04/19 03:46:44;;;;;;;29.53;18.73;;;5.80;99.90;;;;;;4344537;33;20270;-66
2021/04/19 03:49:13;;;;;;;38.77;22.13;;;5.80;99.90;;;;;;4336227;33;20490;-60
2021/04/19 03:51:42;;;;;;;40.10;23.90;;;5.70;99.90;;;;;;4337542;33;20512;-62
2021/04/19 03:54:09;;;;;;;36.77;22.50;;;5.80;99.90;;;;;;4345154;33;20224;-64
2021/04/19 03:56:37;;;;;;;52.10;26.60;;;5.80;99.90;;;;;;4342234;33;20176;-61
2021/04/19 03:59:09;;;;;;;44.03;24.73;;;5.60;99.90;;;;;;4332928;33;20177;-64
2021/04/19 04:01:37;;;;;;;38.23;23.73;;;5.70;99.90;;;;;;4338707;33;20662;-63
2021/04/19 04:04:05;;;;;;;38.03;21.80;;;5.80;99.90;;;;;;4345058;33;20195;-62
2021/04/19 04:06:31;;;;;;;43.13;24.93;;;5.70;99.90;;;;;;4343430;33;20173;-64
2021/04/19 04:08:59;;;;;;;42.13;24.87;;;5.80;99.90;;;;;;4334312;33;20169;-62
2021/04/19 04:11:26;;;;;;;38.83;24.10;;;5.80;99.90;;;;;;4342420;33;20640;-61
2021/04/19 04:13:53;;;;;;;39.57;24.67;;;5.80;99.90;;;;;;4332206;33;20213;-63
2021/04/19 04:16:19;;;;;;;52.37;29.27;;;5.80;99.90;;;;;;4336763;33;20176;-60
2021/04/19 04:18:46;;;;;;;53.60;29.53;;;5.80;99.90;;;;;;4343650;33;20199;-63
2021/04/19 04:21:14;;;;;;;48.50;28.87;;;5.90;99.90;;;;;;4343497;33;20256;-64
2021/04/19 04:23:42;;;;;;;49.97;29.77;;;6.00;99.90;;;;;;4345508;33;20180;-63
2021/04/19 04:26:10;;;;;;;67.50;34.03;;;6.10;99.90;;;;;;4344470;33;20627;-62
2021/04/19 04:28:36;;;;;;;46.33;29.63;;;6.10;99.90;;;;;;4344074;33;20282;-61
2021/04/19 04:31:02;;;;;;;44.57;29.93;;;6.10;99.90;;;;;;4343870;33;20189;-61
2021/04/19 04:33:29;;;;;;;43.87;27.93;;;6.20;99.90;;;;;;4345424;33;20173;-63
2021/04/19 04:35:56;;;;;;;43.07;28.47;;;6.20;99.90;;;;;;4346991;33;20181;-61
2021/04/19 04:38:22;;;;;;;38.60;27.57;;;6.20;99.90;;;;;;4345488;33;20207;-62
2021/04/19 04:40:49;;;;;;;47.23;27.77;;;6.20;99.90;;;;;;4340154;33;20267;-63
2021/04/19 04:43:19;;;;;;;40.40;27.30;;;6.20;99.90;;;;;;4346934;33;20209;-60
2021/04/19 04:45:46;;;;;;;36.30;26.47;;;6.20;99.90;;;;;;4343713;33;20220;-65
2021/04/19 04:48:20;;;;;;;34.27;25.47;;;6.20;99.90;;;;;;4341675;33;20215;-62
2021/04/19 04:50:56;;;;;;;31.57;24.40;;;6.20;99.90;;;;;;4340475;33;20176;-61
2021/04/19 04:53:26;;;;;;;60.17;29.20;;;6.20;99.90;;;;;;4331868;33;20575;-60
2021/04/19 04:55:54;;;;;;;36.63;25.77;;;6.20;99.90;;;;;;4333868;33;20195;-61
2021/04/19 04:58:23;;;;;;;62.00;30.47;;;6.20;99.90;;;;;;4340919;33;20219;-61
2021/04/19 05:00:50;;;;;;;36.13;25.90;;;6.10;99.90;;;;;;4343622;33;20476;-60
2021/04/19 05:03:18;;;;;;;37.90;26.43;;;6.10;99.90;;;;;;4339405;33;20220;-60
2021/04/19 05:05:49;;;;;;;37.20;26.23;;;6.20;99.90;;;;;;4336482;33;20243;-63
2021/04/19 05:08:16;;;;;;;39.43;25.80;;;6.20;99.90;;;;;;4336875;33;20161;-62
2021/04/19 05:10:44;;;;;;;33.90;25.80;;;6.30;99.90;;;;;;4337515;33;20224;-61
2021/04/19 05:13:12;;;;;;;36.70;25.50;;;6.30;99.90;;;;;;4341957;33;20165;-61
2021/04/19 05:15:42;;;;;;;41.43;27.50;;;6.40;99.90;;;;;;4341712;33;20152;-61
2021/04/19 05:18:14;;;;;;;38.83;27.03;;;6.50;99.90;;;;;;4333454;33;20270;-63
2021/04/19 05:20:40;;;;;;;62.03;32.10;;;6.50;99.90;;;;;;4337934;33;20157;-63
2021/04/19 05:23:12;;;;;;;47.93;29.53;;;6.30;99.90;;;;;;4343956;33;20161;-62
2021/04/19 05:25:38;;;;;;;59.60;34.27;;;6.30;99.90;;;;;;4342882;33;20180;-61
2021/04/19 05:28:07;;;;;;;41.37;30.23;;;6.20;99.90;;;;;;4343347;33;20179;-64
2021/04/19 05:30:34;;;;;;;37.70;27.53;;;6.10;99.90;;;;;;4342421;33;20184;-65
2021/04/19 05:33:02;;;;;;;55.83;32.97;;;6.30;99.90;;;;;;4343233;33;20642;-62
2021/04/19 05:35:29;;;;;;;49.53;34.30;;;6.20;99.90;;;;;;4340518;33;20379;-62
2021/04/19 05:37:57;;;;;;;45.43;33.10;;;6.20;99.90;;;;;;4340730;33;20184;-61
2021/04/19 05:40:28;;;;;;;38.60;26.80;;;6.30;99.90;;;;;;4338261;33;20180;-65
2021/04/19 05:42:55;;;;;;;37.20;27.30;;;6.60;99.90;;;;;;4342157;33;20240;-62
2021/04/19 05:45:23;;;;;;;37.50;27.00;;;6.70;99.90;;;;;;4341566;33;20180;-63
2021/04/19 05:47:53;;;;;;;40.90;29.00;;;6.90;99.90;;;;;;4342312;33;20161;-62
2021/04/19 05:50:22;;;;;;;54.00;32.37;;;6.90;99.90;;;;;;4341504;33;20185;-61
2021/04/19 05:52:52;;;;;;;36.57;26.57;;;7.00;99.90;;;;;;4343121;33;20570;-63
2021/04/19 05:55:22;;;;;;;42.47;28.30;;;7.00;99.90;;;;;;4341731;33;20542;-62
2021/04/19 05:57:55;;;;;;;45.20;32.53;;;7.10;99.90;;;;;;4340804;33;20742;-63
2021/04/19 06:00:26;;;;;;;52.30;36.77;;;7.00;99.90;;;;;;4340814;33;20275;-65
2021/04/19 06:03:00;;;;;;;46.07;30.77;;;6.70;99.90;;;;;;4346061;33;20287;-67
2021/04/19 06:05:32;;;;;;;45.43;31.97;;;6.90;99.90;;;;;;4346736;33;20242;-61
2021/04/19 06:08:06;;;;;;;39.63;28.93;;;7.10;99.90;;;;;;4346155;33;20181;-61
2021/04/19 06:10:39;;;;;;;41.47;29.00;;;7.20;99.90;;;;;;4344178;33;20254;-62
2021/04/19 06:13:08;;;;;;;48.77;31.70;;;7.30;99.90;;;;;;4344158;33;20193;-64
2021/04/19 06:15:36;;;;;;;46.50;32.33;;;7.40;99.90;;;;;;4344122;33;20217;-64
2021/04/19 06:18:03;;;;;;;40.70;29.03;;;7.30;99.90;;;;;;4346792;33;20640;-65
2021/04/19 06:20:30;;;;;;;37.03;26.47;;;7.60;99.90;;;;;;4346184;33;20527;-60
2021/04/19 06:22:57;;;;;;;37.53;28.23;;;7.60;99.90;;;;;;4345805;33;20209;-61
2021/04/19 06:25:24;;;;;;;40.47;28.83;;;7.70;99.90;;;;;;4346546;33;20184;-62
2021/04/19 06:28:00;;;;;;;40.97;27.80;;;7.70;99.90;;;;;;4345830;33;20195;-63
2021/04/19 06:30:30;;;;;;;40.57;29.13;;;7.70;99.90;;;;;;4346313;33;20177;-62
2021/04/19 06:33:00;;;;;;;43.70;28.60;;;7.60;99.90;;;;;;4345828;33;20161;-63
2021/04/19 06:35:30;;;;;;;42.33;29.93;;;7.50;99.90;;;;;;4347085;33;20187;-62
2021/04/19 06:37:57;;;;;;;39.60;27.57;;;7.60;99.90;;;;;;4346050;33;20160;-62
2021/04/19 06:40:24;;;;;;;42.80;29.77;;;7.60;99.90;;;;;;4346146;33;20249;-61
2021/04/19 06:42:53;;;;;;;40.97;27.33;;;7.60;99.90;;;;;;4344876;33;20459;-64
2021/04/19 06:45:19;;;;;;;38.83;27.97;;;7.50;99.90;;;;;;4346349;32;20191;-62
2021/04/19 06:47:46;;;;;;;43.90;28.60;;;7.60;99.90;;;;;;4347422;33;20224;-63
2021/04/19 06:50:16;;;;;;;42.20;29.93;;;7.60;99.90;;;;;;4344686;33;20260;-66
2021/04/19 06:52:47;;;;;;;40.47;28.93;;;7.70;99.90;;;;;;4343136;33;20522;-65
2021/04/19 06:55:15;;;;;;;38.20;27.27;;;7.80;99.90;;;;;;4334039;33;20184;-62
2021/04/19 06:57:45;;;;;;;41.17;28.30;;;7.90;99.90;;;;;;4345674;33;20195;-64
2021/04/19 07:00:13;;;;;;;39.83;27.40;;;8.20;99.90;;;;;;4346854;33;20617;-62
2021/04/19 07:02:49;;;;;;;38.37;27.37;;;8.30;99.90;;;;;;4345047;33;20180;-63
2021/04/19 07:05:28;;;;;;;35.20;25.77;;;8.60;99.90;;;;;;4344370;33;20160;-64
2021/04/19 07:08:06;;;;;;;34.20;23.83;;;8.90;99.90;;;;;;4342726;33;20493;-65
2021/04/19 07:10:33;;;;;;;35.20;24.37;;;9.00;99.90;;;;;;4346689;33;20195;-62
2021/04/19 07:13:04;;;;;;;30.57;22.20;;;9.50;99.90;;;;;;4344898;33;20179;-63
2021/04/19 07:15:32;;;;;;;38.00;23.77;;;10.20;99.90;;;;;;4346123;33;20226;-65
2021/04/19 07:17:58;;;;;;;34.80;23.47;;;10.60;99.80;;;;;;4345333;33;20152;-65
2021/04/19 07:20:26;;;;;;;28.93;21.23;;;10.50;99.30;;;;;;4343794;33;20177;-62
2021/04/19 07:22:52;;;;;;;27.83;20.50;;;10.50;99.80;;;;;;4342085;33;20598;-61
2021/04/19 07:25:19;;;;;;;30.50;22.53;;;11.20;99.40;;;;;;4345253;33;20181;-64
2021/04/19 07:27:46;;;;;;;31.80;23.27;;;11.60;97.40;;;;;;4344235;33;20203;-65
2021/04/19 07:30:14;;;;;;;34.50;22.67;;;11.50;96.70;;;;;;4343385;33;20210;-65
2021/04/19 07:32:41;;;;;;;27.27;21.53;;;11.30;97.20;;;;;;4344982;33;20187;-62
2021/04/19 07:35:09;;;;;;;33.77;22.07;;;11.10;97.30;;;;;;4345008;33;20298;-60
2021/04/19 07:37:37;;;;;;;33.50;22.93;;;10.90;97.70;;;;;;4343174;33;20201;-64
2021/04/19 07:40:06;;;;;;;31.20;22.80;;;10.80;97.80;;;;;;4343297;33;20162;-63
2021/04/19 07:42:37;;;;;;;30.07;22.03;;;10.80;97.70;;;;;;4340753;33;20201;-63
2021/04/19 07:45:05;;;;;;;31.43;22.37;;;10.70;98.00;;;;;;4344356;33;20197;-64
2021/04/19 07:47:37;;;;;;;33.30;24.30;;;10.70;98.20;;;;;;4344388;33;20187;-62
2021/04/19 07:50:10;;;;;;;33.73;24.17;;;10.70;98.40;;;;;;4344980;33;20158;-64
2021/04/19 07:52:54;;;;;;;34.70;24.43;;;10.80;99.00;;;;;;4343602;33;20156;-66
2021/04/19 07:55:23;;;;;;;31.07;22.40;;;11.50;97.70;;;;;;4342900;33;20172;-65
2021/04/19 07:57:50;;;;;;;30.57;22.00;;;12.10;96.70;;;;;;4345053;33;20189;-64
2021/04/19 08:00:30;;;;;;;33.13;21.00;;;12.80;94.80;;;;;;4344517;33;20226;-64
2021/04/19 08:03:01;;;;;;;29.23;20.07;;;13.30;93.80;;;;;;4345496;33;20566;-63
2021/04/19 08:05:39;;;;;;;30.57;19.33;;;13.50;93.40;;;;;;4342929;33;20183;-62
2021/04/19 08:08:07;;;;;;;28.37;19.43;;;14.20;92.50;;;;;;4343932;33;20198;-66
2021/04/19 08:10:35;;;;;;;29.13;19.50;;;15.20;90.40;;;;;;4344913;33;20562;-65
2021/04/19 08:13:08;;;;;;;29.60;20.90;;;15.00;90.00;;;;;;4344168;33;20157;-65
2021/04/19 08:15:36;;;;;;;28.87;19.50;;;14.50;90.10;;;;;;4342889;33;20226;-62
2021/04/19 08:18:04;;;;;;;26.57;19.20;;;14.20;90.60;;;;;;4341372;33;20175;-65
2021/04/19 08:20:31;;;;;;;22.43;17.43;;;15.80;90.50;;;;;;4343197;33;20585;-62
2021/04/19 08:23:11;;;;;;;27.13;18.33;;;19.10;79.70;;;;;;4343369;33;20165;-65
2021/04/19 08:25:40;;;;;;;23.30;15.67;;;23.30;66.70;;;;;;4343115;32;20173;-63
2021/04/19 08:28:10;;;;;;;22.13;15.93;;;23.30;60.20;;;;;;4343711;33;20183;-64
2021/04/19 08:30:38;;;;;;;21.57;16.57;;;21.30;63.20;;;;;;4348216;33;20192;-62
2021/04/19 08:33:06;;;;;;;21.83;16.83;;;19.60;68.50;;;;;;4348205;32;20254;-63
2021/04/19 08:35:33;;;;;;;19.57;16.20;;;18.30;72.80;;;;;;4344788;32;20222;-63
2021/04/19 08:38:01;;;;;;;24.63;16.33;;;17.90;74.70;;;;;;4346187;33;20230;-66
2021/04/19 08:40:31;;;;;;;22.73;17.13;;;17.70;75.20;;;;;;4341977;33;20224;-63
2021/04/19 08:42:58;;;;;;;22.03;16.50;;;17.60;76.90;;;;;;4343379;33;20172;-66
2021/04/19 08:45:26;;;;;;;21.83;16.90;;;17.30;76.50;;;;;;4342810;33;20233;-64
2021/04/19 08:47:53;;;;;;;24.30;18.00;;;16.70;78.20;;;;;;4342750;33;20227;-64
2021/04/19 08:50:23;;;;;;;20.53;16.33;;;16.20;81.60;;;;;;4342965;33;20193;-65
2021/04/19 08:52:52;;;;;;;26.20;17.07;;;16.80;79.40;;;;;;4341670;33;20206;-63
2021/04/19 08:55:18;;;;;;;19.43;15.20;;;17.60;78.00;;;;;;4341914;33;20588;-65
2021/04/19 08:57:46;;;;;;;18.97;15.40;;;21.20;69.80;;;;;;4343069;33;20222;-65
2021/04/19 09:00:16;;;;;;;18.67;15.47;;;25.80;58.30;;;;;;4341481;33;20169;-62
2021/04/19 09:02:44;;;;;;;19.97;15.07;;;29.50;48.10;;;;;;4343304;33;20208;-63
2021/04/19 09:05:12;;;;;;;20.37;15.20;;;29.50;42.10;;;;;;4339610;33;20179;-64
2021/04/19 09:07:40;;;;;;;18.60;15.37;;;26.40;46.10;;;;;;4340600;33;20179;-64
2021/04/19 09:10:09;;;;;;;21.97;16.00;;;23.50;53.20;;;;;;4342814;33;20170;-65
2021/04/19 09:12:36;;;;;;;18.17;14.67;;;21.50;59.80;;;;;;4342929;33;20185;-65
2021/04/19 09:15:29;;;;;;;19.37;16.00;;;19.90;65.90;;;;;;4343090;33;20263;-66
2021/04/19 09:18:03;;;;;;;19.87;16.30;;;19.00;69.90;;;;;;4340891;33;20674;-62
2021/04/19 09:20:48;;;;;;;22.17;16.13;;;18.50;71.70;;;;;;4344011;33;20161;-62
2021/04/19 09:23:26;;;;;;;19.03;14.93;;;17.80;74.30;;;;;;4344099;33;20443;-64
2021/04/19 09:25:54;;;;;;;16.77;12.33;;;17.60;76.60;;;;;;4337986;33;20277;-62
2021/04/19 09:28:53;;;;;;;17.43;12.70;;;17.60;76.40;;;;;;4344080;33;20212;-63
2021/04/19 09:31:58;;;;;;;13.87;11.33;;;17.70;76.60;;;;;;4343499;32;20225;-65
2021/04/19 09:34:37;;;;;;;17.03;11.20;;;17.80;76.50;;;;;;4345944;33;20473;-67
2021/04/19 09:37:05;;;;;;;11.97;9.57;;;18.00;75.00;;;;;;4343971;32;20627;-65
2021/04/19 09:39:56;;;;;;;11.23;9.70;;;17.80;73.90;;;;;;4346380;32;20187;-66
2021/04/19 09:43:07;;;;;;;17.77;12.13;;;16.80;76.50;;;;;;4343926;33;20267;-64
2021/04/19 09:45:50;;;;;;;13.63;10.40;;;16.30;79.70;;;;;;4344833;33;20250;-63
2021/04/19 09:48:40;;;;;;;15.07;10.43;;;16.30;80.30;;;;;;4343937;32;20172;-67
2021/04/19 09:51:16;;;;;;;14.17;12.63;;;16.00;81.10;;;;;;4346707;33;20655;-64
2021/04/19 09:53:54;;;;;;;15.80;12.50;;;15.80;82.40;;;;;;4345602;33;20172;-62
2021/04/19 09:56:25;;;;;;;14.87;11.50;;;16.00;83.60;;;;;;4347321;32;20274;-62
2021/04/19 09:58:52;;;;;;;16.23;11.97;;;16.90;79.80;;;;;;4344899;33;20227;-65
2021/04/19 10:01:20;;;;;;;12.80;11.07;;;16.90;78.50;;;;;;4344202;32;20237;-62
2021/04/19 10:03:50;;;;;;;13.50;11.30;;;16.50;79.30;;;;;;4346096;32;20220;-66
2021/04/19 10:06:21;;;;;;;14.70;10.63;;;16.10;79.70;;;;;;4344227;33;20221;-64
2021/04/19 10:08:49;;;;;;;15.13;11.60;;;15.90;80.90;;;;;;4345204;33;20205;-65
2021/04/19 10:11:21;;;;;;;12.70;11.23;;;15.80;81.40;;;;;;4345993;33;20156;-63
2021/04/19 10:13:47;;;;;;;12.13;10.83;;;16.00;80.90;;;;;;4344326;33;20271;-65
2021/04/19 10:16:16;;;;;;;15.03;10.20;;;16.00;80.40;;;;;;4338219;33;20208;-67
2021/04/19 10:18:47;;;;;;;11.33;10.13;;;15.60;81.20;;;;;;4340285;33;20234;-65
2021/04/19 10:21:28;;;;;;;12.17;10.70;;;15.60;82.50;;;;;;4343358;33;20475;-62
2021/04/19 10:23:54;;;;;;;11.70;10.47;;;15.90;81.80;;;;;;4344346;32;20486;-66
2021/04/19 10:26:30;;;;;;;10.30;9.17;;;16.00;81.20;;;;;;4345748;32;20514;-66
2021/04/19 10:28:57;;;;;;;11.23;8.27;;;16.10;78.60;;;;;;4341145;33;20589;-66
2021/04/19 10:31:23;;;;;;;10.33;8.53;;;16.50;77.70;;;;;;4345175;32;20233;-62
2021/04/19 10:33:52;;;;;;;13.00;9.10;;;16.50;77.50;;;;;;4344800;33;20181;-64
2021/04/19 10:36:21;;;;;;;10.30;8.40;;;16.40;77.60;;;;;;4345976;32;20276;-62
2021/04/19 10:38:58;;;;;;;9.50;8.10;;;16.40;77.60;;;;;;4346480;33;20603;-64
2021/04/19 10:41:41;;;;;;;11.53;8.67;;;16.10;77.20;;;;;;4343895;33;20611;-62
2021/04/19 10:44:09;;;;;;;9.17;7.77;;;16.40;78.80;;;;;;4344695;33;20161;-63
2021/04/19 10:46:39;;;;;;;8.93;8.00;;;16.60;75.70;;;;;;4341496;33;20175;-63
2021/04/19 10:49:07;;;;;;;8.83;6.43;;;16.40;76.70;;;;;;4343433;33;20250;-65
2021/04/19 10:51:35;;;;;;;7.70;6.13;;;16.50;75.80;;;;;;4346232;33;20294;-62
2021/04/19 10:54:04;;;;;;;9.37;7.50;;;16.60;73.90;;;;;;4345601;32;20623;-63
2021/04/19 10:56:31;;;;;;;8.07;7.00;;;16.50;75.00;;;;;;4344706;32;20220;-65
2021/04/19 10:59:00;;;;;;;7.37;6.60;;;16.40;75.20;;;;;;4345895;32;20180;-64
2021/04/19 11:01:29;;;;;;;9.50;7.67;;;15.90;76.50;;;;;;4343722;33;20189;-63
2021/04/19 11:03:56;;;;;;;8.63;7.37;;;16.00;77.40;;;;;;4345004;32;20161;-62
2021/04/19 11:06:22;;;;;;;7.93;6.57;;;15.80;76.80;;;;;;4342668;33;20180;-63
2021/04/19 11:08:56;;;;;;;8.23;7.27;;;15.80;77.50;;;;;;4342763;32;20243;-64
2021/04/19 11:11:34;;;;;;;8.03;7.20;;;16.00;77.30;;;;;;4346746;33;20168;-63
2021/04/19 11:14:25;;;;;;;7.23;6.50;;;16.50;75.60;;;;;;4346184;33;20176;-65
2021/04/19 11:16:57;;;;;;;8.00;6.57;;;16.70;74.80;;;;;;4343452;33;20161;-62
2021/04/19 11:19:35;;;;;;;9.00;7.10;;;16.50;74.90;;;;;;4344366;33;20200;-64
2021/04/19 11:22:20;;;;;;;9.00;7.77;;;16.60;75.60;;;;;;4351045;33;20217;-63
2021/04/19 11:24:46;;;;;;;9.13;8.00;;;16.70;74.70;;;;;;4349872;33;20223;-63
2021/04/19 11:27:25;;;;;;;9.70;7.57;;;16.70;75.10;;;;;;4347566;32;20524;-63
2021/04/19 11:29:53;;;;;;;9.17;8.03;;;16.90;73.30;;;;;;4341860;32;20293;-61
2021/04/19 11:32:38;;;;;;;7.90;7.10;;;17.10;73.50;;;;;;4342023;32;20616;-63
2021/04/19 11:35:24;;;;;;;10.17;7.70;;;17.10;73.00;;;;;;4343321;33;20251;-62
2021/04/19 11:37:58;;;;;;;8.70;7.23;;;16.60;73.40;;;;;;4341834;32;20156;-62
2021/04/19 11:40:30;;;;;;;7.17;6.43;;;16.60;75.60;;;;;;4341900;33;20217;-63
2021/04/19 11:42:57;;;;;;;6.93;6.30;;;16.70;74.10;;;;;;4343964;32;20586;-63
2021/04/19 11:45:26;;;;;;;8.50;6.80;;;16.80;73.60;;;;;;4343416;33;20205;-64
2021/04/19 11:47:53;;;;;;;9.23;6.90;;;16.90;72.90;;;;;;4343846;32;20165;-66
2021/04/19 11:50:20;;;;;;;8.63;6.00;;;16.80;72.20;;;;;;4341925;33;20180;-64
2021/04/19 11:52:51;;;;;;;6.83;5.73;;;17.10;72.60;;;;;;4327557;33;20185;-63
2021/04/19 11:55:18;;;;;;;7.77;6.70;;;17.10;70.60;;;;;;4342846;33;20173;-63
2021/04/19 11:57:45;;;;;;;7.83;6.13;;;16.90;70.10;;;;;;4344018;32;20485;-63
2021/04/19 12:00:14;;;;;;;8.03;7.23;;;16.60;71.70;;;;;;4344395;32;20191;-62
2021/04/19 12:02:40;;;;;;;7.47;6.13;;;16.70;72.20;;;;;;4343309;32;20210;-64
2021/04/19 12:05:08;;;;;;;6.13;5.53;;;17.10;72.20;;;;;;4344614;33;20187;-67
2021/04/19 12:07:38;;;;;;;7.00;5.87;;;17.20;71.60;;;;;;4343242;32;20219;-64
2021/04/19 12:10:05;;;;;;;8.27;7.13;;;16.90;71.00;;;;;;4342656;33;20195;-66
2021/04/19 12:12:31;;;;;;;7.63;6.67;;;16.50;71.60;;;;;;4343384;33;20245;-65
2021/04/19 12:14:58;;;;;;;7.73;6.50;;;16.00;72.60;;;;;;4344848;33;20166;-63
2021/04/19 12:17:26;;;;;;;8.40;6.30;;;15.70;73.80;;;;;;4343675;32;20251;-65
2021/04/19 12:19:52;;;;;;;7.60;6.87;;;15.60;74.80;;;;;;4343454;33;20169;-63
2021/04/19 12:22:19;;;;;;;7.60;6.53;;;15.60;74.90;;;;;;4343210;33;21276;-63
2021/04/19 12:24:45;;;;;;;8.07;7.23;;;15.70;73.90;;;;;;4340839;33;20524;-64
2021/04/19 12:27:13;;;;;;;7.63;6.53;;;15.60;75.20;;;;;;4339819;32;20196;-63
2021/04/19 12:29:39;;;;;;;8.97;6.77;;;15.70;75.60;;;;;;4341643;33;20179;-65
2021/04/19 12:32:06;;;;;;;6.87;5.80;;;15.90;74.80;;;;;;4343875;33;20652;-64
2021/04/19 12:34:33;;;;;;;6.80;5.93;;;16.40;73.50;;;;;;4343904;33;20176;-63
2021/04/19 12:37:00;;;;;;;7.90;7.10;;;17.00;72.20;;;;;;4343047;33;20165;-64
2021/04/19 12:39:27;;;;;;;9.67;6.40;;;17.20;69.60;;;;;;4343840;33;20255;-65
2021/04/19 12:41:53;;;;;;;6.37;5.77;;;17.30;70.20;;;;;;4342720;33;20184;-64
2021/04/19 12:44:19;;;;;;;6.30;5.70;;;17.80;69.00;;;;;;4343263;33;20161;-66
2021/04/19 12:46:50;;;;;;;7.63;6.10;;;17.70;68.40;;;;;;4342827;33;20161;-63
2021/04/19 12:49:19;;;;;;;6.07;5.50;;;17.40;68.40;;;;;;4340616;33;20603;-64
2021/04/19 12:51:46;;;;;;;6.77;6.13;;;17.20;69.60;;;;;;4346303;33;20214;-66